Time;durP1;ratioP1;P1;durP2;ratioP2;P2;SDS_P1;SDS_P2;PMS_P1;PMS_P2;Temp;Humidity;BMP_temperature;BMP_pressure;BME280_temperature;BME280_humidity;BME280_pressure;Samples;Min_cycle;Max_cycle;Signal;HPM_P1;HPM_P2
2022/03/23 00:00:16;;;;;;;13.15;9.35;;;;;;;29.53;64.19;101031.91;4994682;28;68780;-35
2022/03/23 00:02:47;;;;;;;10.20;9.13;;;;;;;29.51;64.94;101017.75;4994956;28;66279;-35
2022/03/23 00:05:18;;;;;;;11.07;8.85;;;;;;;29.60;63.20;101027.31;5010557;28;70118;-35
2022/03/23 00:07:49;;;;;;;11.07;8.75;;;;;;;29.69;65.31;101033.38;5012565;28;66189;-35
2022/03/23 00:10:20;;;;;;;8.93;8.18;;;;;;;29.73;65.28;101036.50;5008251;28;69881;-36
2022/03/23 00:12:51;;;;;;;18.48;8.20;;;;;;;29.88;61.44;101045.22;4997388;28;65215;-34
2022/03/23 00:15:22;;;;;;;15.82;7.47;;;;;;;29.90;62.50;101048.56;5000479;28;69262;-35
2022/03/23 00:17:54;;;;;;;12.20;7.82;;;;;;;29.91;63.52;101050.22;5014301;28;66263;-35
2022/03/23 00:20:25;;;;;;;11.57;7.80;;;;;;;29.93;65.17;101068.94;4994523;28;69862;-35
2022/03/23 00:22:55;;;;;;;17.85;8.77;;;;;;;30.00;63.78;101069.75;5015400;28;66603;-35
2022/03/23 00:25:26;;;;;;;17.08;9.05;;;;;;;30.02;64.26;101081.19;4994701;28;70471;-37
2022/03/23 00:27:57;;;;;;;14.05;9.00;;;;;;;30.03;63.45;101091.81;4983369;28;66393;-35
2022/03/23 00:30:28;;;;;;;9.73;8.70;;;;;;;30.04;64.46;101092.66;5013809;28;70222;-35
2022/03/23 00:33:21;;;;;;;15.95;9.77;;;;;;;30.03;65.44;101096.38;5009709;28;66567;-35
2022/03/23 00:35:53;;;;;;;18.13;9.10;;;;;;;30.07;64.80;101097.63;5005137;28;70083;-36
2022/03/23 00:38:23;;;;;;;;;;;;;;;29.78;66.48;101094.34;4992886;28;66410;-35
2022/03/23 00:40:55;;;;;;;8.43;7.68;;;;;;;30.09;62.72;101090.16;5011339;28;70492;-35
2022/03/23 00:43:26;;;;;;;9.90;8.25;;;;;;;30.23;62.73;101097.25;4967329;28;65790;-36
2022/03/23 00:45:58;;;;;;;;;;;;;;;29.95;65.38;101096.59;5014863;28;69926;-35
2022/03/23 00:48:30;;;;;;;8.48;7.32;;;;;;;30.23;62.25;101091.81;5009993;28;67121;-35
2022/03/23 00:51:01;;;;;;;8.23;7.40;;;;;;;30.36;61.85;101100.94;4978026;28;70033;-35
2022/03/23 00:53:32;;;;;;;7.75;7.00;;;;;;;30.39;61.79;101095.09;5009628;28;66771;-35
2022/03/23 00:56:03;;;;;;;11.93;7.28;;;;;;;30.45;61.43;101099.66;5010332;28;70075;-35
2022/03/23 00:58:36;;;;;;;8.73;7.03;;;;;;;30.48;61.79;101105.50;5019004;28;66622;-34
2022/03/23 01:01:08;;;;;;;7.50;6.90;;;;;;;30.50;61.59;101108.00;5009600;28;70493;-36
2022/03/23 01:03:39;;;;;;;10.02;7.32;;;;;;;30.55;61.38;101105.47;4999987;28;65254;-35
2022/03/23 01:06:10;;;;;;;7.60;7.00;;;;;;;30.51;60.97;101093.44;5020257;28;70595;-35
2022/03/23 01:08:41;;;;;;;7.40;6.88;;;;;;;30.61;60.73;101103.78;5017809;28;66362;-34
2022/03/23 01:11:12;;;;;;;7.72;6.93;;;;;;;30.65;60.60;101105.88;5001484;28;70391;-38
2022/03/23 01:13:43;;;;;;;8.00;7.15;;;;;;;30.68;60.62;101104.63;5012624;28;66853;-35
2022/03/23 01:16:14;;;;;;;6.60;6.10;;;;;;;30.60;60.11;101080.50;4999969;28;69575;-35
2022/03/23 01:18:45;;;;;;;11.15;6.53;;;;;;;30.71;60.34;101107.72;5014257;28;65556;-35
2022/03/23 01:21:16;;;;;;;6.13;5.72;;;;;;;30.76;60.21;101103.53;5011398;28;71411;-35
2022/03/23 01:23:47;;;;;;;7.00;6.40;;;;;;;30.77;60.35;101107.91;5020679;28;65561;-36
2022/03/23 01:26:18;;;;;;;6.85;5.90;;;;;;;30.80;60.23;101113.75;5006098;28;69133;-35
2022/03/23 01:28:49;;;;;;;6.35;5.93;;;;;;;30.83;60.19;101115.22;5009822;28;65461;-35
2022/03/23 01:31:19;;;;;;;7.28;6.07;;;;;;;30.80;59.93;101112.94;5018302;28;70617;-34
2022/03/23 01:33:50;;;;;;;6.95;6.30;;;;;;;30.87;59.96;101124.56;5028893;28;65964;-35
2022/03/23 01:36:21;;;;;;;6.25;5.85;;;;;;;30.90;59.77;101118.75;5009964;28;69595;-34
2022/03/23 01:38:52;;;;;;;8.80;6.30;;;;;;;30.93;59.46;101124.53;5020410;28;65834;-34
2022/03/23 01:41:24;;;;;;;6.45;5.88;;;;;;;30.98;59.49;101132.03;5007567;28;69405;-35
2022/03/23 01:43:54;;;;;;;;;;;;;;;30.65;60.64;101124.81;5020521;28;66581;-36
2022/03/23 01:46:26;;;;;;;9.75;5.82;;;;;;;30.92;58.94;101122.03;5015150;28;70623;-35
2022/03/23 01:48:58;;;;;;;6.18;5.68;;;;;;;30.93;58.79;101112.88;5010143;28;66039;-35
2022/03/23 01:51:30;;;;;;;7.53;5.38;;;;;;;30.96;58.87;101107.03;5003453;28;69757;-36
2022/03/23 01:54:03;;;;;;;6.20;5.70;;;;;;;31.07;58.59;101122.59;4999594;28;66518;-38
2022/03/23 01:56:34;;;;;;;6.57;6.07;;;;;;;31.13;58.43;101129.03;4992562;28;70795;-36
2022/03/23 01:59:05;;;;;;;6.25;5.65;;;;;;;31.15;58.05;101133.19;4992440;28;66797;-36
2022/03/23 02:01:37;;;;;;;5.57;5.07;;;;;;;31.17;58.50;101128.41;5004622;28;69417;-38
2022/03/23 02:04:09;;;;;;;6.30;5.70;;;;;;;31.20;58.07;101129.00;5006421;28;66229;-35
2022/03/23 02:06:39;;;;;;;4.80;4.50;;;;;;;31.16;58.39;101113.16;4999905;28;69307;-36
2022/03/23 02:09:12;;;;;;;5.43;5.03;;;;;;;31.27;58.11;101129.81;5005418;28;65895;-35
2022/03/23 02:11:44;;;;;;;5.70;5.20;;;;;;;31.29;58.36;101127.72;5000234;28;70656;-35
2022/03/23 02:14:15;;;;;;;8.68;4.80;;;;;;;31.31;58.50;101125.59;5004930;28;66722;-35
2022/03/23 02:16:49;;;;;;;5.77;5.27;;;;;;;31.26;57.69;101111.84;4999845;28;70277;-35
2022/03/23 02:19:23;;;;;;;5.30;4.88;;;;;;;31.31;57.60;101112.03;4985822;28;65716;-35
2022/03/23 02:21:54;;;;;;;6.10;5.50;;;;;;;31.38;57.70;101115.59;4999600;28;69283;-34
2022/03/23 02:24:28;;;;;;;5.32;4.93;;;;;;;31.12;57.39;101071.31;5002520;28;65698;-34
2022/03/23 02:27:00;;;;;;;4.53;4.22;;;;;;;31.45;57.08;101129.91;5009366;28;69430;-36
2022/03/23 02:29:34;;;;;;;;;;;;;;;31.12;57.29;101122.78;4999344;28;66556;-35
2022/03/23 02:32:05;;;;;;;4.28;3.97;;;;;;;31.45;56.90;101121.78;4998005;28;70553;-36
2022/03/23 02:34:37;;;;;;;4.47;4.07;;;;;;;31.49;56.80;101117.59;4998926;28;66257;-40
2022/03/23 02:37:08;;;;;;;3.87;3.57;;;;;;;31.53;56.48;101121.53;4982104;28;70169;-36
2022/03/23 02:39:39;;;;;;;4.63;4.32;;;;;;;31.56;56.39;101120.25;4994407;28;65618;-36
2022/03/23 02:42:10;;;;;;;5.30;4.90;;;;;;;31.60;56.58;101118.78;5010825;28;71428;-35
2022/03/23 02:44:41;;;;;;;5.05;4.75;;;;;;;31.63;56.38;101122.94;5002645;28;65556;-36
2022/03/23 02:47:13;;;;;;;4.63;4.03;;;;;;;31.63;56.19;101117.50;4998258;28;69966;-36
2022/03/23 02:49:44;;;;;;;5.13;4.72;;;;;;;31.67;56.06;101113.28;4993113;28;66351;-36
2022/03/23 02:52:14;;;;;;;4.35;4.05;;;;;;;31.71;55.63;101114.53;5001045;28;69747;-36
2022/03/23 03:03:19;;;;;;;5.95;4.32;;;;;;;31.81;55.65;101109.44;4984619;28;70529;-36
2022/03/23 03:05:51;;;;;;;5.53;5.10;;;;;;;31.83;55.69;101102.72;4996281;28;65945;-35
2022/03/23 03:11:10;;;;;;;5.60;5.20;;;;;;;31.78;55.57;101088.16;4998834;28;65209;-35
2022/03/23 03:13:42;;;;;;;5.03;4.63;;;;;;;31.94;55.54;101106.63;4999737;28;69847;-36
2022/03/23 03:16:12;;;;;;;;;;;;;;;31.64;56.25;101102.91;5002845;28;66522;-35
2022/03/23 03:18:43;;;;;;;4.60;4.20;;;;;;;31.92;55.42;101089.75;4994311;28;69433;-35
2022/03/23 03:21:14;;;;;;;4.65;4.35;;;;;;;31.98;54.88;101083.44;4997862;28;67582;-35
2022/03/23 03:23:46;;;;;;;4.70;4.40;;;;;;;32.02;55.14;101084.66;5009612;28;69199;-36
2022/03/23 03:26:18;;;;;;;4.53;4.18;;;;;;;31.76;55.08;101030.59;4999093;28;66691;-36
2022/03/23 03:28:50;;;;;;;4.72;4.25;;;;;;;32.05;55.20;101073.34;4996716;28;69338;-35
2022/03/23 03:31:21;;;;;;;4.40;4.10;;;;;;;32.11;55.11;101076.22;5008063;28;66337;-35
2022/03/23 03:33:52;;;;;;;5.38;4.22;;;;;;;32.14;55.02;101071.16;4999951;28;69609;-36
2022/03/23 03:36:23;;;;;;;4.20;3.50;;;;;;;32.16;55.08;101070.97;5012631;28;66789;-35
2022/03/23 03:38:54;;;;;;;4.38;4.05;;;;;;;32.21;54.82;101071.13;5004321;28;69133;-35
2022/03/23 03:41:26;;;;;;;4.50;4.20;;;;;;;32.22;54.70;101072.75;4979454;28;66427;-36
2022/03/23 03:43:56;;;;;;;4.00;3.67;;;;;;;32.25;54.67;101067.72;4997247;28;68971;-36
2022/03/23 03:46:27;;;;;;;4.57;4.18;;;;;;;32.28;54.63;101072.69;5007189;28;65270;-41
2022/03/23 03:48:58;;;;;;;4.20;3.90;;;;;;;32.30;54.64;101067.03;4997896;28;70879;-34
2022/03/23 03:51:29;;;;;;;4.10;3.83;;;;;;;32.32;54.50;101055.94;4998957;28;66459;-36
2022/03/23 03:54:00;;;;;;;3.63;3.42;;;;;;;32.35;54.21;101050.91;4998149;28;69153;-35
2022/03/23 03:56:30;;;;;;;3.58;3.33;;;;;;;32.37;54.64;101046.06;4994379;28;66921;-35
2022/03/23 03:59:02;;;;;;;3.83;3.53;;;;;;;32.31;54.37;101033.41;4999685;28;69951;-35
2022/03/23 04:01:33;;;;;;;3.60;3.30;;;;;;;32.39;54.23;101040.41;5016362;28;65233;-35
2022/03/23 04:04:04;;;;;;;4.30;3.92;;;;;;;32.40;54.00;101042.91;5011250;28;70360;-35
2022/03/23 04:06:34;;;;;;;4.03;3.70;;;;;;;32.39;54.23;101040.41;4997801;28;67186;-35
2022/03/23 04:09:05;;;;;;;4.10;3.80;;;;;;;32.45;54.32;101042.22;4998201;28;70196;-35
2022/03/23 04:11:36;;;;;;;3.75;3.45;;;;;;;32.45;54.06;101029.47;4998221;28;66540;-35
2022/03/23 04:14:06;;;;;;;4.18;3.88;;;;;;;32.50;54.04;101028.81;5004117;28;69615;-35
2022/03/23 04:16:37;;;;;;;3.53;3.33;;;;;;;32.51;54.05;101021.50;5017747;28;67007;-33
2022/03/23 04:19:09;;;;;;;6.97;3.40;;;;;;;32.42;53.68;101004.66;5000480;28;70101;-35
2022/03/23 04:21:40;;;;;;;5.60;3.80;;;;;;;32.54;53.71;101016.47;4988137;28;65271;-36
2022/03/23 04:24:11;;;;;;;3.97;3.65;;;;;;;32.58;54.12;101011.41;4982871;28;70200;-35
2022/03/23 04:26:44;;;;;;;3.83;3.53;;;;;;;32.61;53.87;101002.78;4998076;28;66184;-35
2022/03/23 04:29:16;;;;;;;3.80;3.50;;;;;;;32.63;53.67;101003.41;5012348;28;70022;-36
2022/03/23 04:31:47;;;;;;;4.90;3.70;;;;;;;32.65;53.61;101001.25;5002993;28;66215;-37
2022/03/23 04:34:18;;;;;;;4.05;3.75;;;;;;;32.66;53.55;100981.22;5001808;28;70078;-35
2022/03/23 04:36:49;;;;;;;4.38;2.92;;;;;;;32.70;53.71;100982.38;4996403;28;65970;-36
2022/03/23 04:39:20;;;;;;;5.80;3.28;;;;;;;32.69;53.40;100970.69;5001967;28;69996;-35
2022/03/23 04:41:50;;;;;;;3.30;2.80;;;;;;;32.74;53.36;100971.91;5001870;28;66010;-35
2022/03/23 04:44:21;;;;;;;3.55;3.25;;;;;;;32.67;53.38;100956.50;5000769;28;70320;-35
2022/03/23 04:46:52;;;;;;;3.42;3.17;;;;;;;32.76;53.24;100954.28;5001833;28;67000;-35
2022/03/23 04:49:23;;;;;;;3.70;3.40;;;;;;;32.76;52.97;100948.88;4996819;28;69664;-35
2022/03/23 04:51:54;;;;;;;3.42;3.13;;;;;;;32.83;53.30;100956.94;4996363;28;65344;-36
2022/03/23 04:54:25;;;;;;;5.60;3.10;;;;;;;32.81;53.22;100940.84;4985491;28;69401;-35
2022/03/23 04:56:56;;;;;;;3.70;3.42;;;;;;;32.79;53.13;100928.56;5001027;28;65973;-35
2022/03/23 04:59:27;;;;;;;3.70;3.38;;;;;;;32.85;53.13;100930.38;5012437;28;69785;-35
2022/03/23 05:01:58;;;;;;;3.05;2.85;;;;;;;32.87;52.76;100934.47;4999773;28;66267;-35
2022/03/23 05:04:29;;;;;;;3.25;2.95;;;;;;;32.86;52.74;100921.16;4996066;28;70005;-36
2022/03/23 05:07:00;;;;;;;3.28;2.97;;;;;;;32.85;52.76;100914.91;4983659;28;65090;-36
2022/03/23 05:09:30;;;;;;;3.17;2.97;;;;;;;32.83;52.91;100902.59;5001731;28;70241;-34
2022/03/23 05:12:01;;;;;;;3.60;3.30;;;;;;;32.96;53.07;100923.28;5000431;28;66108;-35
2022/03/23 05:14:31;;;;;;;3.40;3.10;;;;;;;32.96;52.79;100912.41;5016063;28;69152;-35
2022/03/23 05:17:03;;;;;;;6.95;3.08;;;;;;;33.01;52.46;100912.56;5004698;28;66186;-35
2022/03/23 05:19:35;;;;;;;3.47;3.17;;;;;;;33.00;52.38;100908.22;4979096;28;70253;-36
2022/03/23 05:22:06;;;;;;;3.25;2.95;;;;;;;33.01;52.65;100896.25;4983075;28;66144;-36
2022/03/23 05:24:38;;;;;;;2.77;2.60;;;;;;;33.05;52.44;100889.31;5001278;28;69517;-36
2022/03/23 05:27:09;;;;;;;6.50;3.35;;;;;;;33.08;52.59;100889.66;4981972;28;65516;-36
2022/03/23 05:29:40;;;;;;;3.57;2.93;;;;;;;33.07;52.44;100879.88;5019519;28;69226;-36
2022/03/23 05:32:16;;;;;;;4.60;2.77;;;;;;;33.08;52.50;100864.38;4982539;28;65315;-35
2022/03/23 05:34:49;;;;;;;3.22;2.92;;;;;;;33.11;52.56;100856.56;5002120;28;69350;-36
2022/03/23 05:37:20;;;;;;;3.05;2.78;;;;;;;33.12;52.44;100854.69;4984635;28;66455;-36
2022/03/23 05:39:52;;;;;;;7.28;2.83;;;;;;;33.12;52.45;100839.19;4987798;28;69274;-38
2022/03/23 05:42:23;;;;;;;3.30;3.00;;;;;;;33.06;52.27;100823.03;5019755;28;65957;-35
2022/03/23 05:44:54;;;;;;;6.00;2.85;;;;;;;33.22;52.32;100832.34;5003044;28;69484;-34
2022/03/23 05:47:25;;;;;;;2.50;2.30;;;;;;;33.22;52.44;100830.47;4985563;28;66837;-34
2022/03/23 05:49:56;;;;;;;2.88;2.67;;;;;;;33.23;52.21;100823.94;4999331;28;69269;-35
2022/03/23 05:52:27;;;;;;;2.70;2.50;;;;;;;33.24;52.31;100809.31;5010506;28;65722;-36
2022/03/23 05:54:58;;;;;;;2.90;2.70;;;;;;;33.27;52.12;100797.13;5001268;28;69561;-35
2022/03/23 05:57:29;;;;;;;6.00;3.10;;;;;;;33.33;51.90;100797.00;5012281;28;66605;-35
2022/03/23 06:00:00;;;;;;;3.83;2.60;;;;;;;33.33;52.13;100791.56;5015910;28;69979;-35
2022/03/23 06:02:40;;;;;;;2.70;2.50;;;;;;;33.38;51.89;100782.69;5001080;28;66298;-35
2022/03/23 06:05:11;;;;;;;2.72;2.50;;;;;;;33.35;51.91;100773.13;4992789;28;70393;-35
2022/03/23 06:07:42;;;;;;;2.80;2.60;;;;;;;33.40;51.85;100768.84;4998743;28;65898;-35
2022/03/23 06:10:13;;;;;;;4.13;2.78;;;;;;;33.45;51.81;100772.50;4993340;28;70421;-35
2022/03/23 06:12:44;;;;;;;3.38;2.33;;;;;;;33.43;51.87;100757.47;5000511;28;66442;-35
2022/03/23 06:15:15;;;;;;;3.05;2.75;;;;;;;33.49;51.83;100745.63;4987199;28;69830;-35
2022/03/23 06:17:46;;;;;;;2.97;2.72;;;;;;;33.50;51.53;100736.44;4984425;28;66061;-36
2022/03/23 06:20:17;;;;;;;2.78;2.58;;;;;;;33.51;51.67;100727.19;5001499;28;70269;-35
2022/03/23 06:22:47;;;;;;;2.92;2.55;;;;;;;33.55;51.91;100728.41;4999506;28;66062;-34
2022/03/23 06:25:18;;;;;;;4.50;3.00;;;;;;;33.59;51.38;100719.50;5001360;28;70114;-35
2022/03/23 06:27:49;;;;;;;2.88;2.40;;;;;;;33.58;51.40;100706.97;5001060;28;66695;-36
2022/03/23 06:30:19;;;;;;;3.40;2.53;;;;;;;33.67;51.33;100709.31;5002389;28;70283;-41
2022/03/23 06:32:51;;;;;;;2.75;2.55;;;;;;;33.43;51.23;100659.59;5000856;28;66287;-35
2022/03/23 06:35:22;;;;;;;;;;;;;;;33.44;51.52;100700.16;5000712;28;69679;-35
2022/03/23 06:37:52;;;;;;;2.15;2.05;;;;;;;33.52;51.41;100658.16;5000649;28;65825;-35
2022/03/23 06:40:23;;;;;;;2.75;2.55;;;;;;;33.79;51.01;100683.72;4980050;28;70013;-35
2022/03/23 06:42:53;;;;;;;2.63;2.42;;;;;;;33.84;51.18;100671.25;4999862;28;66791;-35
2022/03/23 06:45:24;;;;;;;2.45;2.25;;;;;;;33.87;51.16;100673.47;5003890;28;70571;-35
2022/03/23 06:47:54;;;;;;;2.80;2.50;;;;;;;33.72;51.36;100630.53;4996774;28;65702;-36
2022/03/23 06:50:25;;;;;;;3.50;2.40;;;;;;;33.95;51.11;100651.31;4999413;28;69696;-35
2022/03/23 06:52:56;;;;;;;2.10;2.00;;;;;;;33.84;50.66;100628.53;4998830;28;67687;-36
2022/03/23 06:55:27;;;;;;;2.10;1.90;;;;;;;34.02;51.01;100649.25;4998599;28;69421;-36
2022/03/23 06:57:58;;;;;;;2.38;2.00;;;;;;;34.02;51.14;100649.25;4995843;28;64945;-35
2022/03/23 07:00:28;;;;;;;2.33;2.13;;;;;;;34.07;50.84;100643.91;5006990;28;69625;-35
2022/03/23 07:02:59;;;;;;;2.08;1.88;;;;;;;34.10;50.89;100638.00;5004888;28;65921;-35
2022/03/23 07:05:30;;;;;;;2.50;2.30;;;;;;;34.05;50.50;100624.31;5005105;28;70187;-35
2022/03/23 07:10:55;;;;;;;2.40;2.10;;;;;;;34.19;50.98;100628.31;4997952;28;70324;-35
2022/03/23 07:13:27;;;;;;;1.95;1.85;;;;;;;34.20;50.97;100619.06;4999709;28;66028;-35
2022/03/23 07:15:58;;;;;;;2.13;1.88;;;;;;;34.21;50.68;100623.47;4995469;28;70321;-35
2022/03/23 07:18:29;;;;;;;1.95;1.85;;;;;;;34.22;50.60;100618.84;5010847;28;65623;-35
2022/03/23 07:21:03;;;;;;;2.35;1.88;;;;;;;34.24;50.28;100609.34;5002209;28;69150;-35
2022/03/23 07:23:35;;;;;;;2.78;1.90;;;;;;;34.29;50.95;100605.03;4999327;28;66389;-34
2022/03/23 07:26:06;;;;;;;2.13;2.03;;;;;;;34.29;50.88;100596.88;4994492;28;70339;-35
2022/03/23 07:28:37;;;;;;;5.22;1.90;;;;;;;34.33;50.56;100598.03;4982153;28;66645;-35
2022/03/23 07:31:08;;;;;;;2.92;2.10;;;;;;;34.38;50.72;100598.06;4986593;28;70471;-36
2022/03/23 07:33:39;;;;;;;2.63;2.13;;;;;;;34.36;50.57;100587.47;4990391;28;66292;-35
2022/03/23 07:36:13;;;;;;;7.07;1.60;;;;;;;34.46;50.78;100593.06;4982451;28;69316;-35
2022/03/23 07:38:43;;;;;;;1.67;1.58;;;;;;;34.53;50.78;100581.13;4978980;28;66245;-35
2022/03/23 07:41:14;;;;;;;1.88;1.60;;;;;;;34.40;50.33;100555.91;4979055;28;69209;-36
2022/03/23 07:43:45;;;;;;;2.45;2.03;;;;;;;34.58;50.11;100571.16;4979442;28;65659;-35
2022/03/23 07:46:18;;;;;;;1.70;1.60;;;;;;;34.66;50.18;100573.44;4969847;28;68972;-36
2022/03/23 07:48:48;;;;;;;2.17;1.88;;;;;;;34.73;49.90;100580.59;4975328;28;66317;-35
2022/03/23 07:51:19;;;;;;;1.90;1.73;;;;;;;34.56;50.30;100543.34;4979895;28;69360;-36
2022/03/23 07:53:50;;;;;;;1.50;1.40;;;;;;;34.83;50.02;100569.84;4979462;28;66360;-36
2022/03/23 07:56:21;;;;;;;2.13;1.88;;;;;;;34.88;49.87;100572.59;4980400;28;69419;-43
2022/03/23 07:58:52;;;;;;;1.98;1.88;;;;;;;34.90;49.92;100565.00;4978924;28;65571;-36
2022/03/23 08:01:22;;;;;;;2.22;1.50;;;;;;;34.95;49.70;100561.50;4981797;28;70571;-36
2022/03/23 08:03:53;;;;;;;1.90;1.80;;;;;;;35.00;50.10;100564.28;4990101;28;66169;-35
2022/03/23 08:06:25;;;;;;;;;;;;;;;34.81;50.22;100558.34;4981012;28;70209;-34
2022/03/23 08:08:57;;;;;;;5.32;1.60;;;;;;;35.08;49.60;100559.25;4980908;28;66785;-35
2022/03/23 08:11:29;;;;;;;1.73;1.63;;;;;;;35.18;49.82;100550.31;4982929;28;70738;-36
2022/03/23 08:14:00;;;;;;;1.88;1.50;;;;;;;35.19;49.39;100545.69;4984000;28;66318;-36
2022/03/23 08:16:30;;;;;;;2.75;1.65;;;;;;;35.25;49.23;100550.13;4989358;28;69277;-36
2022/03/23 08:19:01;;;;;;;1.57;1.30;;;;;;;35.22;49.33;100534.28;4996348;28;66489;-35
2022/03/23 08:21:33;;;;;;;1.63;1.50;;;;;;;35.34;49.78;100549.41;4999188;28;69030;-35
2022/03/23 08:24:04;;;;;;;2.08;1.50;;;;;;;35.42;49.43;100550.84;4992461;28;66941;-35
2022/03/23 08:26:34;;;;;;;1.75;1.40;;;;;;;35.46;48.84;100551.94;4987589;28;69690;-35
2022/03/23 08:29:05;;;;;;;1.58;1.48;;;;;;;35.50;49.49;100536.72;5001341;28;66171;-36
2022/03/23 08:31:37;;;;;;;1.73;1.48;;;;;;;35.60;49.12;100540.63;5001643;28;70054;-35
2022/03/23 08:34:09;;;;;;;1.63;1.38;;;;;;;35.62;49.00;100538.47;4998252;28;65999;-35
2022/03/23 08:36:40;;;;;;;4.32;1.48;;;;;;;35.31;49.41;100506.28;5006769;28;70873;-38
2022/03/23 08:39:10;;;;;;;5.57;1.57;;;;;;;35.37;49.76;100520.78;4981668;28;66265;-35
2022/03/23 08:41:41;;;;;;;3.17;1.33;;;;;;;35.38;50.44;100518.88;5011863;28;69846;-35
2022/03/23 08:44:12;;;;;;;1.10;1.00;;;;;;;35.39;50.43;100534.19;5013848;28;65731;-35
2022/03/23 08:46:43;;;;;;;1.60;1.50;;;;;;;35.37;50.42;100526.25;5006371;28;71137;-36
2022/03/23 08:49:14;;;;;;;1.63;1.30;;;;;;;35.40;50.25;100520.25;5010442;28;65438;-35
2022/03/23 08:51:45;;;;;;;2.80;1.30;;;;;;;35.42;50.59;100531.75;5009627;28;69522;-36
2022/03/23 08:54:16;;;;;;;1.35;1.25;;;;;;;35.39;51.11;100524.09;5011825;28;65847;-36
2022/03/23 08:56:46;;;;;;;1.47;1.33;;;;;;;35.31;50.77;100513.66;5006914;28;69737;-36
2022/03/23 08:59:17;;;;;;;1.15;0.90;;;;;;;35.39;50.89;100510.44;5005418;28;65991;-35
2022/03/23 09:01:48;;;;;;;3.58;1.40;;;;;;;35.44;51.49;100510.50;5005276;28;69687;-35
2022/03/23 09:04:19;;;;;;;3.70;1.00;;;;;;;35.45;50.96;100514.84;5011957;28;66192;-35
2022/03/23 09:06:50;;;;;;;5.03;1.50;;;;;;;35.55;51.13;100550.41;5008148;28;69686;-36
2022/03/23 09:09:21;;;;;;;4.28;1.48;;;;;;;35.50;51.72;100557.72;5017037;28;65914;-36
2022/03/23 09:11:51;;;;;;;2.33;1.73;;;;;;;35.47;52.01;100561.78;5007767;28;70027;-35
2022/03/23 09:14:22;;;;;;;3.20;2.03;;;;;;;35.69;52.13;100572.66;5006048;28;66284;-37
2022/03/23 09:16:53;;;;;;;4.18;1.80;;;;;;;35.83;51.43;100575.75;4987926;28;69946;-37
2022/03/23 09:19:24;;;;;;;2.13;1.60;;;;;;;35.83;51.64;100550.34;5009862;28;66264;-38
2022/03/23 09:22:08;;;;;;;2.22;1.63;;;;;;;35.89;51.70;100549.31;4980993;28;70188;-37
2022/03/23 09:24:57;;;;;;;1.92;1.67;;;;;;;35.96;51.40;100547.16;5001006;28;65836;-38
2022/03/23 09:27:37;;;;;;;2.83;1.58;;;;;;;36.00;51.59;100562.78;5016458;28;70045;-37
2022/03/23 09:30:11;;;;;;;4.03;2.78;;;;;;;36.07;51.17;100583.59;5020303;28;66678;-36
2022/03/23 09:32:43;;;;;;;4.60;3.13;;;;;;;35.83;50.22;100539.44;4998873;28;69642;-38
2022/03/23 09:35:16;;;;;;;3.78;2.95;;;;;;;35.88;50.36;100547.66;5010389;28;65223;-37
2022/03/23 09:37:49;;;;;;;4.85;3.35;;;;;;;36.16;50.35;100587.47;5019303;28;69365;-37
2022/03/23 09:40:25;;;;;;;7.22;4.35;;;;;;;36.14;49.72;100584.19;5020637;28;66279;-37
2022/03/23 09:43:08;;;;;;;3.70;3.20;;;;;;;36.18;49.37;100591.56;5019164;28;70147;-37
2022/03/23 09:45:48;;;;;;;6.30;3.58;;;;;;;36.19;50.17;100592.38;5020406;28;65395;-36
2022/03/23 09:48:21;;;;;;;6.50;3.25;;;;;;;36.18;50.15;100582.56;5012095;28;69892;-37
2022/03/23 09:50:54;;;;;;;5.20;2.67;;;;;;;36.12;49.94;100567.25;5019597;28;65462;-38
2022/03/23 09:53:25;;;;;;;4.03;2.78;;;;;;;36.12;50.63;100586.34;5018343;28;70132;-38
2022/03/23 09:55:56;;;;;;;5.10;2.47;;;;;;;36.15;50.58;100597.56;5014701;28;65881;-38
2022/03/23 09:58:27;;;;;;;5.18;2.60;;;;;;;36.13;50.05;100598.91;5019332;28;69944;-38
2022/03/23 10:00:59;;;;;;;8.25;3.85;;;;;;;36.07;49.79;100597.22;5019555;28;66664;-38
2022/03/23 10:04:12;;;;;;;7.25;3.35;;;;;;;35.99;50.18;100610.25;4981082;28;70727;-36
2022/03/23 10:07:06;;;;;;;9.07;3.08;;;;;;;36.08;49.44;100615.25;4990942;28;67231;-38
2022/03/23 10:10:11;;;;;;;7.40;2.83;;;;;;;36.03;49.40;100605.91;5012702;28;69793;-37
2022/03/23 10:13:35;;;;;;;6.45;3.00;;;;;;;35.99;49.27;100614.88;5011817;28;65383;-37
2022/03/23 10:16:39;;;;;;;5.22;2.75;;;;;;;35.96;49.51;100609.94;4975959;28;70656;-38
2022/03/23 10:19:10;;;;;;;3.88;2.88;;;;;;;36.00;49.47;100617.38;5004633;28;65972;-38
2022/03/23 10:21:41;;;;;;;3.80;2.60;;;;;;;35.96;49.05;100615.41;5013841;28;70152;-38
2022/03/23 10:24:11;;;;;;;11.30;3.35;;;;;;;35.93;49.65;100622.22;5013978;28;65880;-37
2022/03/23 10:26:42;;;;;;;4.23;3.70;;;;;;;35.86;49.75;100607.13;5012460;28;69413;-38
2022/03/23 10:29:22;;;;;;;19.43;5.23;;;;;;;35.88;49.95;100635.81;4982763;28;65111;-37
2022/03/23 10:32:04;;;;;;;5.53;4.18;;;;;;;35.86;49.78;100632.53;5000153;28;69578;-37
2022/03/23 10:34:40;;;;;;;9.80;4.97;;;;;;;35.85;49.52;100630.88;4994596;28;66323;-38
2022/03/23 10:37:16;;;;;;;10.30;3.88;;;;;;;35.82;50.03;100639.59;5015915;28;69384;-39
2022/03/23 10:39:50;;;;;;;7.18;5.55;;;;;;;35.74;50.15;100631.88;5006596;28;64977;-37
2022/03/23 10:42:23;;;;;;;15.52;5.20;;;;;;;35.73;49.79;100639.25;5010292;28;69543;-37
2022/03/23 10:45:17;;;;;;;3.50;3.20;;;;;;;35.32;49.97;100586.19;4983371;28;65664;-37
2022/03/23 10:47:49;;;;;;;12.38;3.38;;;;;;;35.69;50.32;100649.06;4999556;28;70690;-37
2022/03/23 10:50:26;;;;;;;12.43;3.90;;;;;;;35.69;50.42;100642.75;5016940;28;65006;-37
2022/03/23 10:53:02;;;;;;;7.40;3.60;;;;;;;35.68;49.97;100643.84;5009329;28;70152;-38
2022/03/23 10:55:37;;;;;;;4.25;3.13;;;;;;;35.33;52.53;100634.22;5015631;28;66367;-38
2022/03/23 10:58:24;;;;;;;4.93;2.60;;;;;;;35.48;52.49;100664.34;5015983;28;69279;-36
2022/03/23 11:01:00;;;;;;;4.95;2.45;;;;;;;35.17;51.62;100607.84;4992515;28;66724;-37
2022/03/23 11:03:37;;;;;;;6.80;4.38;;;;;;;35.49;52.18;100665.97;5016134;28;68945;-37
2022/03/23 11:06:13;;;;;;;7.05;5.13;;;;;;;35.40;52.38;100664.81;4998277;28;65322;-38
2022/03/23 11:08:44;;;;;;;11.27;6.30;;;;;;;35.42;52.25;100676.28;5010541;28;69269;-39
2022/03/23 11:16:53;;;;;;;8.25;6.88;;;;;;;34.91;53.42;100611.09;4994557;28;65198;-40
2022/03/23 11:19:27;;;;;;;6.90;6.35;;;;;;;35.23;53.53;100661.34;4983628;28;69483;-40
2022/03/23 11:22:16;;;;;;;11.77;6.68;;;;;;;35.16;53.58;100674.34;4983981;28;66189;-38
2022/03/23 11:24:47;;;;;;;10.60;5.75;;;;;;;35.15;53.55;100665.34;5013731;28;70046;-38
2022/03/23 11:27:19;;;;;;;7.45;5.35;;;;;;;35.02;53.89;100666.53;4992148;28;65912;-37
2022/03/23 11:29:51;;;;;;;9.38;4.43;;;;;;;34.75;54.49;100671.09;4982780;28;69002;-36
2022/03/23 11:32:27;;;;;;;6.97;4.05;;;;;;;34.27;56.05;100657.03;4992830;28;66558;-37
2022/03/23 11:35:04;;;;;;;8.25;4.25;;;;;;;34.09;57.33;100674.44;4959362;28;69938;-39
2022/03/23 11:37:40;;;;;;;10.50;4.72;;;;;;;33.77;57.93;100660.53;4947848;28;65489;-38
2022/03/23 11:40:12;;;;;;;5.28;4.85;;;;;;;33.71;58.93;100677.81;4988894;28;70434;-36
2022/03/23 11:42:43;;;;;;;4.70;4.30;;;;;;;33.52;58.92;100683.47;4993778;28;66369;-39
2022/03/23 11:45:14;;;;;;;6.70;4.80;;;;;;;33.45;58.84;100695.53;4989565;28;69466;-37
2022/03/23 11:47:58;;;;;;;6.97;5.53;;;;;;;33.23;59.33;100676.34;4965027;28;65222;-38
2022/03/23 11:50:46;;;;;;;11.75;4.38;;;;;;;33.28;59.09;100701.72;4971134;28;69930;-38
2022/03/23 11:53:29;;;;;;;12.90;3.88;;;;;;;33.44;58.78;100705.59;4991793;28;66033;-37
2022/03/23 11:56:02;;;;;;;11.40;3.50;;;;;;;33.45;57.62;100709.13;4994956;28;69198;-40
2022/03/23 11:58:37;;;;;;;19.80;3.83;;;;;;;33.24;58.33;100656.22;4958114;28;66046;-36
2022/03/23 12:01:13;;;;;;;14.43;3.80;;;;;;;33.45;58.63;100709.13;4993945;28;69801;-36
2022/03/23 12:03:48;;;;;;;8.95;3.70;;;;;;;33.46;58.48;100718.94;4965094;28;66122;-38
2022/03/23 12:06:22;;;;;;;4.10;3.70;;;;;;;33.52;58.70;100731.59;4967528;28;69875;-38
2022/03/23 12:08:58;;;;;;;5.57;4.00;;;;;;;33.50;57.74;100726.38;4973897;28;66077;-39
2022/03/23 12:11:44;;;;;;;17.48;4.68;;;;;;;33.51;58.42;100738.88;4991574;28;69218;-38